Time;durP1;ratioP1;P1;durP2;ratioP2;P2;SDS_P1;SDS_P2;PMS_P1;PMS_P2;Temp;Humidity;BMP_temperature;BMP_pressure;BME280_temperature;BME280_humidity;BME280_pressure;Samples;Min_cycle;Max_cycle;Signal;HPM_P1;HPM_P2
2022/12/10 00:01:24;;;;;;;23.42;10.32;;;;;;;;;;5011703;28;20046;-77
2022/12/10 00:03:50;;;;;;;15.52;7.90;;;;;;;;;;5010503;28;20057;-77
2022/12/10 00:06:18;;;;;;;23.83;10.90;;;;;;;;;;5011574;28;20113;-77
2022/12/10 00:08:45;;;;;;;24.48;10.35;;;;;;;;;;5011033;28;20042;-77
2022/12/10 00:11:11;;;;;;;31.88;13.48;;;;;;;;;;4996397;28;20077;-77
2022/12/10 00:13:37;;;;;;;25.45;14.43;;;;;;;;;;5012367;28;20050;-77
2022/12/10 00:16:04;;;;;;;25.90;12.13;;;;;;;;;;4993428;28;20046;-77
2022/12/10 00:18:31;;;;;;;24.02;11.55;;;;;;;;;;5010446;28;20042;-77
2022/12/10 00:20:57;;;;;;;27.70;11.55;;;;;;;;;;5012371;28;20128;-77
2022/12/10 00:23:23;;;;;;;28.27;9.75;;;;;;;;;;5013572;28;22003;-77
2022/12/10 00:25:49;;;;;;;25.27;10.90;;;;;;;;;;5011557;28;20038;-77
2022/12/10 00:28:16;;;;;;;23.65;10.65;;;;;;;;;;4994164;28;20133;-76
2022/12/10 00:30:42;;;;;;;15.35;6.50;;;;;;;;;;5010434;28;20045;-77
2022/12/10 00:33:08;;;;;;;24.38;10.95;;;;;;;;;;5010806;28;20045;-77
2022/12/10 00:35:37;;;;;;;21.00;10.57;;;;;;;;;;5011670;28;21277;-77
2022/12/10 00:38:04;;;;;;;29.83;12.82;;;;;;;;;;5010877;28;20049;-77
2022/12/10 00:40:30;;;;;;;26.60;12.02;;;;;;;;;;4991625;28;20129;-77
2022/12/10 00:42:56;;;;;;;26.40;11.65;;;;;;;;;;5011847;28;20622;-77
2022/12/10 00:45:22;;;;;;;26.75;9.75;;;;;;;;;;5010471;28;20542;-77
2022/12/10 00:47:48;;;;;;;11.07;6.40;;;;;;;;;;5011096;28;20045;-77
2022/12/10 00:50:14;;;;;;;21.15;8.80;;;;;;;;;;5013430;28;20041;-77
2022/12/10 00:52:40;;;;;;;20.08;9.27;;;;;;;;;;5012371;28;20133;-77
2022/12/10 00:55:06;;;;;;;16.48;4.65;;;;;;;;;;5013226;28;20053;-77
2022/12/10 00:57:32;;;;;;;25.80;10.77;;;;;;;;;;4999226;28;20044;-77
2022/12/10 00:59:58;;;;;;;21.85;8.85;;;;;;;;;;4998306;28;20531;-77
2022/12/10 01:02:24;;;;;;;20.35;10.75;;;;;;;;;;5013980;28;20544;-77
2022/12/10 01:04:53;;;;;;;23.08;10.65;;;;;;;;;;5017419;28;20551;-77
2022/12/10 01:07:20;;;;;;;22.95;10.38;;;;;;;;;;5016051;28;20038;-76
2022/12/10 01:09:46;;;;;;;19.23;9.50;;;;;;;;;;5016211;28;20048;-77
2022/12/10 01:12:12;;;;;;;17.02;8.35;;;;;;;;;;5011449;28;20052;-77
2022/12/10 01:14:38;;;;;;;21.17;9.00;;;;;;;;;;5014713;28;20045;-77
2022/12/10 01:17:05;;;;;;;19.05;8.23;;;;;;;;;;5010428;28;20050;-77
2022/12/10 01:19:33;;;;;;;15.50;7.18;;;;;;;;;;5011131;28;20042;-76
2022/12/10 01:21:59;;;;;;;7.45;4.35;;;;;;;;;;5012847;28;20519;-77
2022/12/10 01:24:26;;;;;;;21.25;8.68;;;;;;;;;;5008097;28;20044;-77
2022/12/10 01:26:52;;;;;;;16.63;6.60;;;;;;;;;;5008981;28;20149;-77
2022/12/10 01:29:19;;;;;;;16.92;8.05;;;;;;;;;;5010235;28;20421;-76
2022/12/10 01:31:47;;;;;;;21.15;8.70;;;;;;;;;;5007482;28;20046;-76
2022/12/10 01:34:14;;;;;;;21.92;9.50;;;;;;;;;;5012783;28;20047;-76
2022/12/10 01:36:44;;;;;;;26.63;9.88;;;;;;;;;;5012431;28;20038;-77
2022/12/10 01:39:12;;;;;;;17.67;8.45;;;;;;;;;;5013365;28;20046;-77
2022/12/10 01:41:42;;;;;;;20.00;10.10;;;;;;;;;;5014727;28;20046;-77
2022/12/10 01:44:08;;;;;;;21.05;8.52;;;;;;;;;;5014058;28;20046;-77
2022/12/10 01:46:36;;;;;;;26.88;12.05;;;;;;;;;;5012142;28;20042;-77
2022/12/10 01:49:03;;;;;;;21.85;10.27;;;;;;;;;;5013121;28;20052;-77
2022/12/10 01:51:31;;;;;;;25.65;10.75;;;;;;;;;;5006048;28;20050;-77
2022/12/10 01:53:57;;;;;;;8.82;4.68;;;;;;;;;;5011572;28;20037;-78
2022/12/10 01:56:24;;;;;;;17.30;9.13;;;;;;;;;;5009118;28;20057;-77
2022/12/10 01:58:51;;;;;;;7.72;4.00;;;;;;;;;;5013365;28;20143;-78
2022/12/10 02:01:31;;;;;;;23.45;10.63;;;;;;;;;;5010191;28;20913;-77
2022/12/10 02:04:04;;;;;;;27.15;11.38;;;;;;;;;;5011979;28;20045;-78
2022/12/10 02:06:39;;;;;;;25.48;10.57;;;;;;;;;;4994815;28;20137;-78
2022/12/10 02:09:29;;;;;;;27.23;10.82;;;;;;;;;;4993307;28;20048;-78
2022/12/10 02:12:07;;;;;;;22.83;9.82;;;;;;;;;;4995590;28;20046;-77
2022/12/10 02:14:42;;;;;;;23.73;9.95;;;;;;;;;;5008991;28;20071;-78
2022/12/10 02:17:14;;;;;;;22.67;8.68;;;;;;;;;;5012960;28;20042;-77
2022/12/10 02:19:49;;;;;;;23.73;10.00;;;;;;;;;;5014761;28;20038;-77
2022/12/10 02:22:16;;;;;;;23.65;9.05;;;;;;;;;;5014416;28;20052;-78
2022/12/10 02:24:43;;;;;;;22.23;11.75;;;;;;;;;;5011054;28;20053;-78
2022/12/10 02:27:09;;;;;;;25.02;9.55;;;;;;;;;;5010733;28;20046;-77
2022/12/10 02:29:35;;;;;;;26.00;9.32;;;;;;;;;;5013077;28;20053;-77
2022/12/10 02:32:10;;;;;;;30.95;13.00;;;;;;;;;;5012171;28;20397;-78
2022/12/10 02:34:39;;;;;;;32.30;12.35;;;;;;;;;;5010876;28;20042;-78
2022/12/10 02:37:07;;;;;;;26.95;10.95;;;;;;;;;;5012359;28;20185;-78
2022/12/10 02:39:36;;;;;;;14.23;7.65;;;;;;;;;;5011620;28;20124;-78
2022/12/10 02:42:03;;;;;;;23.63;10.13;;;;;;;;;;5013726;28;20053;-78
2022/12/10 02:44:30;;;;;;;20.08;7.55;;;;;;;;;;5011097;28;20103;-77
2022/12/10 02:46:57;;;;;;;18.92;9.18;;;;;;;;;;5011751;28;20048;-78
2022/12/10 02:49:24;;;;;;;13.48;7.22;;;;;;;;;;5017288;28;20042;-77
2022/12/10 02:51:50;;;;;;;20.55;8.98;;;;;;;;;;5012005;28;20046;-77
2022/12/10 02:54:37;;;;;;;18.33;8.60;;;;;;;;;;5015982;28;20776;-77
2022/12/10 02:57:08;;;;;;;19.30;7.50;;;;;;;;;;5015898;28;20115;-78
2022/12/10 02:59:57;;;;;;;23.48;8.18;;;;;;;;;;5015245;28;20080;-78
2022/12/10 03:02:30;;;;;;;25.25;10.00;;;;;;;;;;5016841;28;20518;-78
2022/12/10 03:05:07;;;;;;;24.80;11.15;;;;;;;;;;5015207;28;20064;-78
2022/12/10 03:07:34;;;;;;;24.00;9.13;;;;;;;;;;5014301;28;20046;-77
2022/12/10 03:10:04;;;;;;;22.92;9.23;;;;;;;;;;5010900;28;20038;-77
2022/12/10 03:12:33;;;;;;;18.35;9.52;;;;;;;;;;5013576;28;20090;-78
2022/12/10 03:15:01;;;;;;;16.50;6.93;;;;;;;;;;5012036;28;20147;-77
2022/12/10 03:17:29;;;;;;;19.20;8.48;;;;;;;;;;5013092;28;20038;-78
2022/12/10 03:19:56;;;;;;;15.38;8.10;;;;;;;;;;5014440;28;20041;-78
2022/12/10 03:22:24;;;;;;;19.23;8.75;;;;;;;;;;5012334;28;20198;-77
2022/12/10 03:24:51;;;;;;;19.02;8.00;;;;;;;;;;5011577;28;20267;-76
2022/12/10 03:27:17;;;;;;;20.35;7.45;;;;;;;;;;5012889;28;20038;-76
2022/12/10 03:29:48;;;;;;;20.27;8.38;;;;;;;;;;5012856;28;20045;-77
2022/12/10 03:32:15;;;;;;;17.75;7.05;;;;;;;;;;5011746;28;20599;-76
2022/12/10 03:34:42;;;;;;;18.52;8.35;;;;;;;;;;5014973;28;20046;-77
2022/12/10 03:37:08;;;;;;;15.77;7.55;;;;;;;;;;5014544;28;20038;-77
2022/12/10 03:39:34;;;;;;;18.20;6.45;;;;;;;;;;5014168;28;20131;-76
2022/12/10 03:42:00;;;;;;;15.95;5.13;;;;;;;;;;5015288;28;20038;-76
2022/12/10 03:44:33;;;;;;;14.93;6.80;;;;;;;;;;5011713;28;20056;-77
2022/12/10 03:47:00;;;;;;;16.45;7.10;;;;;;;;;;5014948;28;20046;-76
2022/12/10 03:49:26;;;;;;;14.95;6.97;;;;;;;;;;5012396;28;20038;-76
2022/12/10 03:51:52;;;;;;;17.52;6.00;;;;;;;;;;5012769;28;20048;-78
2022/12/10 03:54:18;;;;;;;20.08;6.18;;;;;;;;;;5008905;28;20038;-76
2022/12/10 03:56:45;;;;;;;24.98;7.90;;;;;;;;;;5011547;28;20096;-76
2022/12/10 03:59:11;;;;;;;15.30;6.70;;;;;;;;;;5009793;28;20134;-76
2022/12/10 04:01:37;;;;;;;21.77;10.00;;;;;;;;;;5010284;28;20042;-76
2022/12/10 04:04:04;;;;;;;11.98;6.15;;;;;;;;;;5010450;28;20129;-76
2022/12/10 04:06:30;;;;;;;22.55;8.32;;;;;;;;;;5010910;28;20054;-76
2022/12/10 04:08:56;;;;;;;15.57;6.45;;;;;;;;;;5009725;28;20041;-77
2022/12/10 04:11:23;;;;;;;11.43;5.15;;;;;;;;;;5010356;28;20050;-76
2022/12/10 04:16:34;;;;;;;15.50;5.70;;;;;;;;;;5010126;28;20065;-76
2022/12/10 04:19:02;;;;;;;21.90;8.18;;;;;;;;;;5005587;28;20041;-77
2022/12/10 04:27:02;;;;;;;22.23;9.13;;;;;;;;;;5010420;28;20097;-77
2022/12/10 04:29:29;;;;;;;14.15;7.05;;;;;;;;;;5007550;28;20046;-77
2022/12/10 04:31:56;;;;;;;23.48;9.43;;;;;;;;;;5011644;28;20046;-76
2022/12/10 04:34:28;;;;;;;24.13;9.13;;;;;;;;;;5018918;28;20519;-76
2022/12/10 04:36:54;;;;;;;22.75;9.15;;;;;;;;;;5015531;28;20614;-76
2022/12/10 04:39:21;;;;;;;7.40;4.25;;;;;;;;;;5013622;28;20057;-77
2022/12/10 04:41:49;;;;;;;25.45;8.82;;;;;;;;;;5015386;28;20076;-76
2022/12/10 04:44:16;;;;;;;10.07;3.50;;;;;;;;;;5009311;28;20038;-76
2022/12/10 04:46:42;;;;;;;21.70;7.05;;;;;;;;;;5014398;28;20074;-76
2022/12/10 04:49:08;;;;;;;22.30;8.77;;;;;;;;;;5014500;28;20042;-76
2022/12/10 04:51:34;;;;;;;22.63;9.82;;;;;;;;;;5012943;28;20050;-76
2022/12/10 04:54:01;;;;;;;14.38;5.28;;;;;;;;;;5015240;28;20120;-76
2022/12/10 04:56:27;;;;;;;14.07;6.38;;;;;;;;;;5012649;28;20439;-76
2022/12/10 04:58:55;;;;;;;26.48;7.65;;;;;;;;;;5010609;28;21132;-76
2022/12/10 05:01:21;;;;;;;14.55;6.85;;;;;;;;;;5011817;28;20468;-76
2022/12/10 05:03:47;;;;;;;15.20;4.20;;;;;;;;;;5009515;28;20057;-77
2022/12/10 05:06:15;;;;;;;17.65;7.15;;;;;;;;;;5015267;28;20054;-77
2022/12/10 05:08:41;;;;;;;19.30;7.00;;;;;;;;;;5014002;28;20049;-76
2022/12/10 05:11:10;;;;;;;15.55;6.07;;;;;;;;;;5011726;28;20729;-76
2022/12/10 05:13:36;;;;;;;14.38;5.00;;;;;;;;;;5011509;28;20137;-76
2022/12/10 05:16:06;;;;;;;13.48;4.78;;;;;;;;;;5012668;28;20045;-76
2022/12/10 05:18:32;;;;;;;21.55;8.70;;;;;;;;;;5013172;28;20069;-76
2022/12/10 05:20:59;;;;;;;17.70;7.15;;;;;;;;;;5012029;28;20050;-76
2022/12/10 05:23:28;;;;;;;13.20;6.13;;;;;;;;;;5010458;28;20042;-76
2022/12/10 05:26:03;;;;;;;12.30;6.35;;;;;;;;;;5011222;28;20073;-76
2022/12/10 05:28:30;;;;;;;21.52;7.30;;;;;;;;;;5009150;28;20055;-76
2022/12/10 05:30:56;;;;;;;13.45;6.25;;;;;;;;;;5014408;28;20056;-76
2022/12/10 05:33:23;;;;;;;16.98;5.50;;;;;;;;;;5010665;28;20050;-76
2022/12/10 05:35:56;;;;;;;8.93;3.53;;;;;;;;;;4994971;28;20595;-76
2022/12/10 05:38:22;;;;;;;12.02;5.90;;;;;;;;;;4998294;28;20045;-76
2022/12/10 05:40:49;;;;;;;14.57;4.57;;;;;;;;;;5011176;28;20050;-76
2022/12/10 05:43:15;;;;;;;12.57;4.88;;;;;;;;;;5010909;28;20038;-76
2022/12/10 05:45:41;;;;;;;11.65;4.50;;;;;;;;;;5012665;28;20554;-77
2022/12/10 05:48:07;;;;;;;12.90;5.07;;;;;;;;;;5013303;28;20092;-77
2022/12/10 05:50:33;;;;;;;17.13;6.22;;;;;;;;;;5012055;28;20046;-77
2022/12/10 05:52:59;;;;;;;10.52;5.72;;;;;;;;;;5016041;28;20070;-76
2022/12/10 05:55:27;;;;;;;14.98;6.63;;;;;;;;;;5014977;28;20046;-76
2022/12/10 05:57:53;;;;;;;11.40;5.43;;;;;;;;;;5013256;28;20052;-76
2022/12/10 06:00:21;;;;;;;15.00;6.00;;;;;;;;;;5011462;28;20044;-76
2022/12/10 06:02:47;;;;;;;12.00;4.95;;;;;;;;;;5014945;28;20046;-76
2022/12/10 06:05:13;;;;;;;11.45;4.13;;;;;;;;;;5012792;28;20062;-76
2022/12/10 06:07:39;;;;;;;17.52;7.82;;;;;;;;;;5013986;28;20341;-77
2022/12/10 06:10:05;;;;;;;15.75;6.50;;;;;;;;;;5009284;28;20042;-76
2022/12/10 06:12:31;;;;;;;8.45;3.53;;;;;;;;;;5013703;28;20050;-76
2022/12/10 06:14:57;;;;;;;12.55;4.78;;;;;;;;;;4993672;28;20044;-76
2022/12/10 06:17:23;;;;;;;9.85;3.67;;;;;;;;;;5014479;28;20046;-76
2022/12/10 06:19:49;;;;;;;13.13;4.60;;;;;;;;;;5015857;28;20042;-76
2022/12/10 06:22:16;;;;;;;13.10;4.53;;;;;;;;;;5017034;28;20046;-76
2022/12/10 06:24:42;;;;;;;12.95;5.18;;;;;;;;;;5015008;28;20045;-76
2022/12/10 06:27:08;;;;;;;10.93;3.83;;;;;;;;;;5016099;28;20639;-77
2022/12/10 06:29:34;;;;;;;15.23;5.60;;;;;;;;;;5013424;28;20050;-77
2022/12/10 06:32:00;;;;;;;11.95;5.32;;;;;;;;;;5026454;28;20079;-78
2022/12/10 06:34:26;;;;;;;9.57;3.42;;;;;;;;;;5042468;28;20042;-77
2022/12/10 06:36:52;;;;;;;11.27;5.05;;;;;;;;;;5042163;28;20034;-77
2022/12/10 06:39:18;;;;;;;16.85;5.10;;;;;;;;;;5040238;28;20042;-76
2022/12/10 06:41:45;;;;;;;11.75;5.68;;;;;;;;;;5021280;28;20048;-76
2022/12/10 06:44:12;;;;;;;11.27;5.25;;;;;;;;;;5018415;28;20038;-76
2022/12/10 06:46:39;;;;;;;12.95;6.10;;;;;;;;;;5019337;28;20049;-77
2022/12/10 06:49:05;;;;;;;15.60;7.75;;;;;;;;;;5016967;28;20141;-77
2022/12/10 06:51:31;;;;;;;19.15;6.70;;;;;;;;;;5015669;28;20045;-77
2022/12/10 06:53:58;;;;;;;14.60;6.47;;;;;;;;;;5017415;28;20041;-77
2022/12/10 06:56:24;;;;;;;19.38;6.90;;;;;;;;;;5017809;28;20523;-78
2022/12/10 06:58:50;;;;;;;19.30;7.30;;;;;;;;;;5014413;28;20133;-78
2022/12/10 07:01:20;;;;;;;15.80;6.10;;;;;;;;;;5011535;28;20048;-78
2022/12/10 07:03:47;;;;;;;16.63;7.30;;;;;;;;;;4997916;28;20030;-78
2022/12/10 07:06:14;;;;;;;12.48;5.28;;;;;;;;;;5018003;28;20053;-78
2022/12/10 07:08:40;;;;;;;17.08;6.35;;;;;;;;;;5015946;28;20128;-78
2022/12/10 07:11:13;;;;;;;12.20;5.78;;;;;;;;;;5014183;28;20046;-78
2022/12/10 07:13:39;;;;;;;18.98;6.57;;;;;;;;;;5012925;28;20105;-78
2022/12/10 07:16:13;;;;;;;17.10;6.07;;;;;;;;;;5011378;28;20038;-77
2022/12/10 07:18:39;;;;;;;17.33;6.35;;;;;;;;;;5013694;28;20902;-78
2022/12/10 07:21:18;;;;;;;15.35;6.72;;;;;;;;;;5012938;28;20973;-83
2022/12/10 07:23:45;;;;;;;17.17;6.90;;;;;;;;;;5009045;28;20045;-78
2022/12/10 07:26:11;;;;;;;18.85;7.22;;;;;;;;;;5006650;28;20599;-77
2022/12/10 07:28:37;;;;;;;18.98;6.55;;;;;;;;;;5011209;28;20141;-78
2022/12/10 07:31:04;;;;;;;17.50;5.93;;;;;;;;;;5010656;28;20447;-78
2022/12/10 07:33:30;;;;;;;13.60;6.60;;;;;;;;;;4996341;28;20603;-77
2022/12/10 07:35:56;;;;;;;12.95;6.18;;;;;;;;;;5010632;28;20038;-77
2022/12/10 07:38:23;;;;;;;18.05;6.05;;;;;;;;;;5015158;28;20161;-78
2022/12/10 07:40:50;;;;;;;21.00;7.88;;;;;;;;;;5012774;28;20073;-80
2022/12/10 07:43:16;;;;;;;15.60;6.88;;;;;;;;;;5013231;28;20579;-78
2022/12/10 07:45:42;;;;;;;12.93;5.93;;;;;;;;;;5007784;28;20041;-77
2022/12/10 07:48:08;;;;;;;18.70;6.57;;;;;;;;;;5008877;28;20117;-77
2022/12/10 07:50:34;;;;;;;18.10;8.07;;;;;;;;;;5012105;28;20144;-77
2022/12/10 07:53:00;;;;;;;16.15;7.45;;;;;;;;;;5010804;28;20046;-79
2022/12/10 07:55:26;;;;;;;20.50;8.40;;;;;;;;;;5011700;28;20070;-78
2022/12/10 07:57:52;;;;;;;21.88;7.95;;;;;;;;;;5012529;28;20562;-79
2022/12/10 08:00:18;;;;;;;16.23;7.03;;;;;;;;;;5008280;28;20188;-78
2022/12/10 08:02:44;;;;;;;15.68;7.45;;;;;;;;;;5014346;28;20038;-78
2022/12/10 08:05:11;;;;;;;18.40;8.85;;;;;;;;;;5016431;28;20058;-78
2022/12/10 08:07:37;;;;;;;21.77;7.03;;;;;;;;;;5018614;28;20049;-78
2022/12/10 08:13:07;;;;;;;12.57;7.13;;;;;;;;;;5019080;28;20567;-79
2022/12/10 08:15:34;;;;;;;15.57;7.60;;;;;;;;;;5019542;28;20878;-79
2022/12/10 08:18:00;;;;;;;18.08;6.40;;;;;;;;;;5017966;28;20116;-78
2022/12/10 08:20:26;;;;;;;12.63;5.10;;;;;;;;;;5018162;28;20080;-78
2022/12/10 08:22:52;;;;;;;10.00;4.38;;;;;;;;;;5017025;28;20161;-78
2022/12/10 08:25:18;;;;;;;12.18;5.38;;;;;;;;;;5017613;28;20042;-78
2022/12/10 08:27:45;;;;;;;13.82;5.43;;;;;;;;;;5016074;28;20042;-78
2022/12/10 08:30:12;;;;;;;14.98;5.43;;;;;;;;;;5013020;28;20432;-78
2022/12/10 08:32:38;;;;;;;12.35;4.90;;;;;;;;;;5017608;28;20046;-78
2022/12/10 08:35:04;;;;;;;14.75;6.38;;;;;;;;;;5014801;28;20073;-78
2022/12/10 08:37:30;;;;;;;9.80;4.72;;;;;;;;;;5015038;28;20042;-78
2022/12/10 08:39:56;;;;;;;11.95;4.97;;;;;;;;;;5014690;28;20049;-77
2022/12/10 08:42:22;;;;;;;15.48;5.60;;;;;;;;;;4999783;28;20040;-78
2022/12/10 08:44:48;;;;;;;13.10;4.88;;;;;;;;;;5015500;28;20732;-78
2022/12/10 08:47:14;;;;;;;11.35;5.35;;;;;;;;;;5015741;28;20491;-79
2022/12/10 08:49:40;;;;;;;20.75;7.28;;;;;;;;;;5015280;28;20084;-79
2022/12/10 08:52:07;;;;;;;9.07;5.13;;;;;;;;;;5014084;28;20038;-79
2022/12/10 08:54:33;;;;;;;14.32;5.50;;;;;;;;;;5015786;28;20033;-79
2022/12/10 08:56:59;;;;;;;14.85;5.55;;;;;;;;;;5016793;28;20116;-79
2022/12/10 08:59:25;;;;;;;12.32;6.18;;;;;;;;;;5015194;28;20546;-78
2022/12/10 09:01:52;;;;;;;20.15;6.53;;;;;;;;;;5018471;28;20068;-79
2022/12/10 09:04:18;;;;;;;22.60;7.30;;;;;;;;;;5000056;28;20532;-78
2022/12/10 09:06:45;;;;;;;15.50;4.88;;;;;;;;;;5013291;28;20535;-79
2022/12/10 09:09:11;;;;;;;13.05;5.95;;;;;;;;;;5017410;28;20124;-79
2022/12/10 09:11:37;;;;;;;11.43;4.75;;;;;;;;;;5016591;28;20034;-78
2022/12/10 09:14:03;;;;;;;15.80;5.40;;;;;;;;;;5016320;28;20125;-78
2022/12/10 09:16:30;;;;;;;10.70;4.25;;;;;;;;;;5015124;28;20616;-78
2022/12/10 09:18:56;;;;;;;11.35;6.18;;;;;;;;;;5014849;28;20451;-79
2022/12/10 09:21:30;;;;;;;6.63;4.75;;;;;;;;;;4999690;28;20056;-78
2022/12/10 09:23:56;;;;;;;11.60;5.30;;;;;;;;;;5016327;28;20713;-78
2022/12/10 09:26:22;;;;;;;9.48;5.20;;;;;;;;;;5014356;28;20549;-79
2022/12/10 09:28:49;;;;;;;11.32;5.50;;;;;;;;;;5014940;28;20068;-78
2022/12/10 09:31:16;;;;;;;8.85;4.70;;;;;;;;;;4997173;28;20512;-78
2022/12/10 09:33:42;;;;;;;10.07;5.10;;;;;;;;;;4995901;28;20590;-77
2022/12/10 09:36:09;;;;;;;12.63;4.75;;;;;;;;;;5015579;28;20069;-78
2022/12/10 09:38:36;;;;;;;9.40;4.82;;;;;;;;;;5014178;28;20053;-78
2022/12/10 09:41:04;;;;;;;10.55;4.57;;;;;;;;;;5014283;28;20043;-78
2022/12/10 09:43:36;;;;;;;8.35;3.90;;;;;;;;;;5013599;28;20050;-78
2022/12/10 09:46:05;;;;;;;7.88;4.50;;;;;;;;;;5014772;28;20046;-78
2022/12/10 09:48:49;;;;;;;11.73;4.95;;;;;;;;;;5014493;28;20137;-78
2022/12/10 09:51:23;;;;;;;10.02;3.97;;;;;;;;;;5013802;28;20129;-78
2022/12/10 09:53:58;;;;;;;6.28;4.13;;;;;;;;;;5013165;28;20338;-78
2022/12/10 09:56:34;;;;;;;11.38;5.18;;;;;;;;;;5016110;28;20555;-78
2022/12/10 09:59:03;;;;;;;12.45;6.47;;;;;;;;;;5014471;28;20034;-79
2022/12/10 10:01:30;;;;;;;6.30;4.45;;;;;;;;;;5012178;28;20121;-78
2022/12/10 10:03:56;;;;;;;9.88;5.55;;;;;;;;;;5013161;28;20080;-78
2022/12/10 10:06:24;;;;;;;16.00;5.93;;;;;;;;;;4989847;28;20546;-78
2022/12/10 10:08:55;;;;;;;13.13;5.78;;;;;;;;;;4973004;28;20130;-78
2022/12/10 10:11:23;;;;;;;10.55;6.03;;;;;;;;;;4974590;28;20043;-78
2022/12/10 10:13:52;;;;;;;10.48;5.20;;;;;;;;;;4987979;28;20066;-78
2022/12/10 10:16:24;;;;;;;7.18;4.50;;;;;;;;;;4975321;28;20047;-78
2022/12/10 10:18:50;;;;;;;;;;;;;;;;;;4972249;28;20548;-78
2022/12/10 10:21:23;;;;;;;10.95;5.22;;;;;;;;;;4978975;28;19977;-89
2022/12/10 10:23:49;;;;;;;10.65;5.18;;;;;;;;;;4989157;28;20049;-77
2022/12/10 10:26:16;;;;;;;13.50;5.65;;;;;;;;;;4975948;28;20130;-75
2022/12/10 10:28:43;;;;;;;14.50;5.13;;;;;;;;;;4973078;28;20573;-75
2022/12/10 10:31:20;;;;;;;14.55;5.60;;;;;;;;;;4973807;28;20043;-75
2022/12/10 10:33:56;;;;;;;9.48;4.90;;;;;;;;;;4992215;28;20588;-75
2022/12/10 10:36:32;;;;;;;10.13;4.68;;;;;;;;;;4975172;28;20038;-75
2022/12/10 10:39:18;;;;;;;9.35;4.78;;;;;;;;;;4973892;28;20138;-75
2022/12/10 10:41:44;;;;;;;12.18;6.03;;;;;;;;;;4978060;28;20388;-75
2022/12/10 10:44:15;;;;;;;10.60;5.10;;;;;;;;;;4977920;28;20236;-75
2022/12/10 10:46:42;;;;;;;11.35;5.38;;;;;;;;;;4977124;28;20852;-75
2022/12/10 10:49:24;;;;;;;9.88;4.90;;;;;;;;;;4976659;28;20623;-76
2022/12/10 10:51:50;;;;;;;13.55;5.90;;;;;;;;;;4992510;28;20090;-75
2022/12/10 10:54:51;;;;;;;9.20;5.70;;;;;;;;;;4977482;28;20053;-76
2022/12/10 10:57:25;;;;;;;9.80;4.57;;;;;;;;;;4915752;28;20064;-75
2022/12/10 10:59:56;;;;;;;12.10;4.50;;;;;;;;;;4983260;28;20485;-75
2022/12/10 11:02:26;;;;;;;10.23;6.28;;;;;;;;;;4993424;28;20053;-74
2022/12/10 11:04:53;;;;;;;10.43;4.88;;;;;;;;;;4993165;28;20054;-74
2022/12/10 11:07:41;;;;;;;14.30;7.30;;;;;;;;;;4978546;28;20054;-74
2022/12/10 11:10:21;;;;;;;15.23;7.25;;;;;;;;;;4992498;28;20577;-74
2022/12/10 11:12:57;;;;;;;12.13;6.07;;;;;;;;;;4977531;28;20038;-74
2022/12/10 11:15:23;;;;;;;14.30;5.40;;;;;;;;;;4978345;28;20047;-74
2022/12/10 11:17:51;;;;;;;10.65;5.72;;;;;;;;;;4975366;28;20051;-74
2022/12/10 11:20:22;;;;;;;7.82;5.10;;;;;;;;;;4977245;28;20873;-74
2022/12/10 11:22:52;;;;;;;11.70;4.85;;;;;;;;;;4975639;28;20050;-74
2022/12/10 11:25:21;;;;;;;13.38;6.05;;;;;;;;;;4978435;28;20526;-74
2022/12/10 11:28:01;;;;;;;12.55;6.88;;;;;;;;;;4977055;28;20045;-74
2022/12/10 11:30:27;;;;;;;9.52;5.28;;;;;;;;;;4976553;28;20085;-74
2022/12/10 11:33:19;;;;;;;11.77;6.78;;;;;;;;;;4976326;28;20046;-74
2022/12/10 11:36:06;;;;;;;15.18;6.35;;;;;;;;;;4969134;28;20059;-74
2022/12/10 11:38:52;;;;;;;10.57;6.55;;;;;;;;;;4978070;28;20039;-75
2022/12/10 11:41:26;;;;;;;11.23;6.05;;;;;;;;;;4966411;28;20164;-74
2022/12/10 11:43:52;;;;;;;11.45;4.80;;;;;;;;;;4977624;28;20503;-74
2022/12/10 11:46:23;;;;;;;9.88;5.82;;;;;;;;;;4976931;28;20038;-74
2022/12/10 11:48:49;;;;;;;9.00;4.10;;;;;;;;;;4976469;28;20106;-74
2022/12/10 11:51:30;;;;;;;10.43;4.30;;;;;;;;;;4977820;28;20042;-74
2022/12/10 11:54:12;;;;;;;9.88;5.30;;;;;;;;;;4977637;28;20035;-74
2022/12/10 11:56:41;;;;;;;13.27;6.28;;;;;;;;;;4992786;28;20058;-74
2022/12/10 11:59:07;;;;;;;12.63;5.95;;;;;;;;;;4991586;28;20047;-74
2022/12/10 12:01:33;;;;;;;11.00;5.55;;;;;;;;;;4977697;28;20549;-74
2022/12/10 12:04:18;;;;;;;8.68;5.40;;;;;;;;;;4977833;28;20600;-74
2022/12/10 12:07:19;;;;;;;7.97;4.63;;;;;;;;;;5016047;28;20045;-74
2022/12/10 12:10:08;;;;;;;8.95;4.93;;;;;;;;;;4953503;28;20166;-74
2022/12/10 12:12:34;;;;;;;8.30;3.95;;;;;;;;;;4988900;28;20058;-74
2022/12/10 12:15:03;;;;;;;9.65;5.07;;;;;;;;;;5014616;28;20049;-74
2022/12/10 12:17:51;;;;;;;10.00;4.18;;;;;;;;;;5013831;28;20544;-74
2022/12/10 12:20:20;;;;;;;9.80;4.80;;;;;;;;;;5014269;28;20496;-74
2022/12/10 12:22:50;;;;;;;10.73;4.65;;;;;;;;;;5013049;28;20520;-79
2022/12/10 12:25:26;;;;;;;16.85;4.78;;;;;;;;;;5015316;28;20085;-79
2022/12/10 12:27:56;;;;;;;10.90;5.70;;;;;;;;;;5012905;28;20512;-79
2022/12/10 12:30:23;;;;;;;9.82;4.70;;;;;;;;;;5012192;28;20435;-78
2022/12/10 12:32:55;;;;;;;7.38;4.53;;;;;;;;;;5012479;28;20125;-77
2022/12/10 12:35:33;;;;;;;12.95;4.63;;;;;;;;;;5012179;28;20052;-76
2022/12/10 12:38:18;;;;;;;9.27;5.20;;;;;;;;;;5010194;28;20050;-76
2022/12/10 12:40:48;;;;;;;9.23;4.38;;;;;;;;;;5011103;28;20444;-76
2022/12/10 12:43:18;;;;;;;10.80;4.90;;;;;;;;;;5011128;28;20042;-76
2022/12/10 12:45:46;;;;;;;12.48;5.72;;;;;;;;;;5012945;28;20050;-76
2022/12/10 12:48:15;;;;;;;11.80;5.55;;;;;;;;;;5007919;28;20120;-77
2022/12/10 12:50:44;;;;;;;8.40;4.28;;;;;;;;;;5009727;28;20682;-77
2022/12/10 12:53:11;;;;;;;12.93;5.57;;;;;;;;;;5011046;28;20061;-77
2022/12/10 12:55:47;;;;;;;14.63;5.50;;;;;;;;;;5012899;28;20042;-77
2022/12/10 12:58:19;;;;;;;12.10;4.53;;;;;;;;;;5016036;28;20045;-76
2022/12/10 13:00:47;;;;;;;10.05;4.88;;;;;;;;;;5014306;28;20554;-75
2022/12/10 13:03:30;;;;;;;9.63;5.45;;;;;;;;;;5013738;28;20042;-76
2022/12/10 13:05:56;;;;;;;12.88;4.72;;;;;;;;;;5014271;28;20080;-76
2022/12/10 13:08:25;;;;;;;10.70;5.13;;;;;;;;;;5015815;28;20619;-75
2022/12/10 13:11:10;;;;;;;7.55;4.50;;;;;;;;;;5015594;28;20128;-76
2022/12/10 13:13:40;;;;;;;10.90;4.70;;;;;;;;;;5017296;28;20042;-76
2022/12/10 13:16:25;;;;;;;7.78;4.93;;;;;;;;;;5014688;28;20034;-75
2022/12/10 13:19:11;;;;;;;5.25;3.28;;;;;;;;;;5016514;28;20049;-75
2022/12/10 13:21:56;;;;;;;8.85;4.00;;;;;;;;;;5013866;28;20113;-76
2022/12/10 13:24:45;;;;;;;8.88;5.40;;;;;;;;;;5013073;28;20038;-76
2022/12/10 13:27:14;;;;;;;9.25;4.60;;;;;;;;;;5013363;28;20038;-76
2022/12/10 13:29:40;;;;;;;13.57;5.38;;;;;;;;;;5009786;28;20049;-76
2022/12/10 13:32:14;;;;;;;9.85;4.50;;;;;;;;;;5011767;28;20053;-76
2022/12/10 13:34:40;;;;;;;8.00;4.90;;;;;;;;;;5011305;28;20042;-76
2022/12/10 13:37:15;;;;;;;13.27;6.13;;;;;;;;;;5013672;28;20042;-76
2022/12/10 13:39:53;;;;;;;12.77;4.57;;;;;;;;;;5013216;28;20053;-76
2022/12/10 13:45:25;;;;;;;11.27;4.57;;;;;;;;;;5013714;28;20041;-76
2022/12/10 13:48:14;;;;;;;9.52;5.63;;;;;;;;;;5016836;28;20708;-80
2022/12/10 13:50:50;;;;;;;9.52;5.15;;;;;;;;;;4999499;28;20048;-78
2022/12/10 13:53:16;;;;;;;9.10;3.97;;;;;;;;;;5014860;28;20630;-79
2022/12/10 13:56:02;;;;;;;8.77;4.28;;;;;;;;;;5013055;28;20049;-79
2022/12/10 13:58:28;;;;;;;6.22;3.50;;;;;;;;;;5015213;28;21208;-80
2022/12/10 14:01:13;;;;;;;9.18;5.30;;;;;;;;;;5012994;28;20046;-79
2022/12/10 14:03:51;;;;;;;6.53;3.13;;;;;;;;;;5011828;28;20866;-80
2022/12/10 14:06:19;;;;;;;6.55;3.97;;;;;;;;;;5016006;28;20280;-80
2022/12/10 14:08:57;;;;;;;7.70;4.22;;;;;;;;;;5012769;28;20169;-80
2022/12/10 14:11:26;;;;;;;8.13;4.05;;;;;;;;;;5011769;28;21616;-79
2022/12/10 14:13:57;;;;;;;8.30;3.60;;;;;;;;;;5011645;28;20061;-80
2022/12/10 14:16:24;;;;;;;8.40;4.75;;;;;;;;;;4999265;28;20432;-79
2022/12/10 14:18:57;;;;;;;10.15;5.07;;;;;;;;;;5016333;28;20045;-79
2022/12/10 14:21:24;;;;;;;7.72;4.63;;;;;;;;;;5014300;28;20428;-79
2022/12/10 14:23:51;;;;;;;8.65;4.07;;;;;;;;;;5011381;28;20082;-79
2022/12/10 14:26:19;;;;;;;9.35;4.40;;;;;;;;;;5016410;28;20069;-79
2022/12/10 14:28:46;;;;;;;7.07;4.43;;;;;;;;;;5016603;28;20053;-79
2022/12/10 14:31:16;;;;;;;9.55;4.68;;;;;;;;;;5017171;28;20063;-80
2022/12/10 14:33:44;;;;;;;9.00;4.82;;;;;;;;;;4999673;28;20054;-80
2022/12/10 14:36:15;;;;;;;8.27;4.80;;;;;;;;;;5013667;28;20044;-79
2022/12/10 14:38:41;;;;;;;9.40;4.93;;;;;;;;;;5012074;28;20153;-80
2022/12/10 14:41:07;;;;;;;8.57;3.88;;;;;;;;;;5017952;28;20045;-80
2022/12/10 14:43:39;;;;;;;12.27;4.65;;;;;;;;;;4996718;28;20049;-80
2022/12/10 14:46:06;;;;;;;9.18;4.13;;;;;;;;;;5015661;28;20565;-79
2022/12/10 14:48:39;;;;;;;7.45;4.85;;;;;;;;;;5018100;28;20061;-80
2022/12/10 14:51:13;;;;;;;6.60;3.80;;;;;;;;;;5019992;28;20100;-80
2022/12/10 14:53:39;;;;;;;8.80;4.28;;;;;;;;;;5016529;28;20049;-80
2022/12/10 14:56:08;;;;;;;8.43;4.60;;;;;;;;;;5017487;28;20092;-80
2022/12/10 14:58:40;;;;;;;6.82;4.55;;;;;;;;;;5015776;28;20052;-80